Time;durP1;ratioP1;P1;durP2;ratioP2;P2;SDS_P1;SDS_P2;PMS_P1;PMS_P2;Temp;Humidity;BMP_temperature;BMP_pressure;BME280_temperature;BME280_humidity;BME280_pressure;Samples;Min_cycle;Max_cycle;Signal;HPM_P1;HPM_P2
2021/05/20 00:01:11;;;;;;;10.82;6.20;;;;;;;;;;5054338;28;20051;-68
2021/05/20 00:03:37;;;;;;;13.75;6.80;;;;;;;;;;5054841;28;20035;-69
2021/05/20 00:06:05;;;;;;;9.75;7.25;;;;;;;;;;5054243;28;20029;-69
2021/05/20 00:08:31;;;;;;;10.65;6.55;;;;;;;;;;5054171;28;20027;-69
2021/05/20 00:10:57;;;;;;;10.70;7.03;;;;;;;;;;5054538;28;20032;-69
2021/05/20 00:13:24;;;;;;;14.43;7.28;;;;;;;;;;5054653;28;20078;-68
2021/05/20 00:15:51;;;;;;;9.52;5.55;;;;;;;;;;5054392;28;20052;-68
2021/05/20 00:18:17;;;;;;;13.15;6.95;;;;;;;;;;5054264;28;20459;-69
2021/05/20 00:20:43;;;;;;;9.80;6.30;;;;;;;;;;5054279;28;20032;-68
2021/05/20 00:23:10;;;;;;;9.82;6.95;;;;;;;;;;5069802;28;20033;-69
2021/05/20 00:25:36;;;;;;;17.65;7.90;;;;;;;;;;5069092;28;20029;-69
2021/05/20 00:28:03;;;;;;;9.48;6.45;;;;;;;;;;5053956;28;20029;-69
2021/05/20 00:30:29;;;;;;;13.55;7.32;;;;;;;;;;5054173;28;20478;-69
2021/05/20 00:32:56;;;;;;;12.82;7.63;;;;;;;;;;5054222;28;20021;-68
2021/05/20 00:35:23;;;;;;;10.82;7.18;;;;;;;;;;5069607;28;20143;-69
2021/05/20 00:37:49;;;;;;;14.18;8.00;;;;;;;;;;5053818;28;20021;-69
2021/05/20 00:40:16;;;;;;;15.18;7.50;;;;;;;;;;5053948;28;20029;-69
2021/05/20 00:42:48;;;;;;;11.40;7.28;;;;;;;;;;5050345;28;20110;-69
2021/05/20 00:45:15;;;;;;;11.75;7.43;;;;;;;;;;5032526;28;20049;-69
2021/05/20 00:47:41;;;;;;;13.82;7.72;;;;;;;;;;5049123;28;20033;-69
2021/05/20 00:50:08;;;;;;;16.85;7.50;;;;;;;;;;5053170;28;20044;-69
2021/05/20 00:52:35;;;;;;;11.68;6.78;;;;;;;;;;5053524;28;20025;-69
2021/05/20 00:55:03;;;;;;;12.90;7.63;;;;;;;;;;5069273;28;20017;-68
2021/05/20 00:57:29;;;;;;;9.90;6.90;;;;;;;;;;5068670;28;20017;-69
2021/05/20 01:00:02;;;;;;;18.33;9.43;;;;;;;;;;5053181;28;20037;-69
2021/05/20 01:02:29;;;;;;;11.13;7.47;;;;;;;;;;5052670;28;20052;-69
2021/05/20 01:04:55;;;;;;;10.93;7.13;;;;;;;;;;5068839;28;20340;-69
2021/05/20 01:07:21;;;;;;;12.02;7.00;;;;;;;;;;5053585;28;20415;-68
2021/05/20 01:09:47;;;;;;;11.05;7.05;;;;;;;;;;5053146;28;20159;-68
2021/05/20 01:12:14;;;;;;;13.25;6.80;;;;;;;;;;5052777;28;20028;-69
2021/05/20 01:14:44;;;;;;;11.13;7.20;;;;;;;;;;5053442;28;20021;-68
2021/05/20 01:17:13;;;;;;;10.13;6.00;;;;;;;;;;5053299;28;20025;-69
2021/05/20 01:19:40;;;;;;;11.18;7.05;;;;;;;;;;5052425;28;20025;-68
2021/05/20 01:22:07;;;;;;;13.48;7.60;;;;;;;;;;5068122;28;20120;-69
2021/05/20 01:24:33;;;;;;;10.13;6.75;;;;;;;;;;5053105;28;20031;-68
2021/05/20 01:27:00;;;;;;;12.13;7.03;;;;;;;;;;5053249;28;20032;-68
2021/05/20 01:29:27;;;;;;;13.40;7.50;;;;;;;;;;5068038;28;20028;-69
2021/05/20 01:31:53;;;;;;;11.20;6.22;;;;;;;;;;5052953;28;20227;-68
2021/05/20 01:34:19;;;;;;;10.50;7.30;;;;;;;;;;5052532;28;20021;-68
2021/05/20 01:36:46;;;;;;;11.55;7.13;;;;;;;;;;5053113;28;20039;-68
2021/05/20 01:39:12;;;;;;;9.05;6.50;;;;;;;;;;5052543;28;20066;-68
2021/05/20 01:41:39;;;;;;;15.80;6.75;;;;;;;;;;5052434;28;20059;-68
2021/05/20 01:44:05;;;;;;;12.32;6.43;;;;;;;;;;5052997;28;20025;-68
2021/05/20 01:46:32;;;;;;;10.52;6.53;;;;;;;;;;5052833;28;20028;-68
2021/05/20 01:48:58;;;;;;;13.15;6.40;;;;;;;;;;5051612;28;20021;-69
2021/05/20 01:51:25;;;;;;;11.48;6.90;;;;;;;;;;5052050;28;20532;-68
2021/05/20 01:53:53;;;;;;;9.73;6.40;;;;;;;;;;5052878;28;20028;-68
2021/05/20 01:56:20;;;;;;;8.93;6.35;;;;;;;;;;5052802;28;20462;-68
2021/05/20 01:58:47;;;;;;;11.80;7.18;;;;;;;;;;5052555;28;20025;-68
2021/05/20 02:01:13;;;;;;;13.82;6.28;;;;;;;;;;5054781;28;20043;-68
2021/05/20 02:03:39;;;;;;;9.80;6.65;;;;;;;;;;5061310;28;20037;-68
2021/05/20 02:06:06;;;;;;;11.98;7.05;;;;;;;;;;5062509;28;20028;-68
2021/05/20 02:08:33;;;;;;;9.43;6.00;;;;;;;;;;5072553;28;20028;-68
2021/05/20 02:11:00;;;;;;;9.32;6.50;;;;;;;;;;5057852;28;20083;-68
2021/05/20 02:13:26;;;;;;;8.05;5.88;;;;;;;;;;5069193;28;20025;-68
2021/05/20 02:15:53;;;;;;;8.52;6.03;;;;;;;;;;5055915;28;20075;-68
2021/05/20 02:18:19;;;;;;;8.93;6.60;;;;;;;;;;5054041;28;20025;-69
2021/05/20 02:20:45;;;;;;;7.95;6.03;;;;;;;;;;5052285;28;20025;-68
2021/05/20 02:23:15;;;;;;;11.55;6.88;;;;;;;;;;5052510;28;20434;-68
2021/05/20 02:25:42;;;;;;;9.80;7.57;;;;;;;;;;5051984;28;20031;-68
2021/05/20 02:28:08;;;;;;;11.18;6.97;;;;;;;;;;5051641;28;20037;-68
2021/05/20 02:30:35;;;;;;;8.68;6.97;;;;;;;;;;5051837;28;20487;-68
2021/05/20 02:33:02;;;;;;;10.13;6.72;;;;;;;;;;5037777;28;20111;-69
2021/05/20 02:35:28;;;;;;;9.30;6.30;;;;;;;;;;5053058;28;20025;-69
2021/05/20 02:37:55;;;;;;;9.55;6.80;;;;;;;;;;5067785;28;20082;-68
2021/05/20 02:40:22;;;;;;;9.68;6.53;;;;;;;;;;5067281;28;20113;-69
2021/05/20 02:42:48;;;;;;;10.77;6.78;;;;;;;;;;5067776;28;20397;-69
2021/05/20 02:45:16;;;;;;;8.88;6.22;;;;;;;;;;5052108;28;20033;-69
2021/05/20 02:47:42;;;;;;;11.15;7.05;;;;;;;;;;5056234;28;20135;-69
2021/05/20 02:50:09;;;;;;;12.50;6.93;;;;;;;;;;5061804;28;20048;-69
2021/05/20 02:52:35;;;;;;;8.05;5.53;;;;;;;;;;5059991;28;20450;-68
2021/05/20 02:55:03;;;;;;;12.20;6.95;;;;;;;;;;5061414;28;20070;-69
2021/05/20 02:57:31;;;;;;;8.95;6.00;;;;;;;;;;5052109;28;20418;-69
2021/05/20 02:59:58;;;;;;;11.38;6.00;;;;;;;;;;5052822;28;20032;-68
2021/05/20 03:02:24;;;;;;;10.00;6.50;;;;;;;;;;5055320;28;20055;-68
2021/05/20 03:04:51;;;;;;;9.65;6.50;;;;;;;;;;5055667;28;20024;-68
2021/05/20 03:07:17;;;;;;;9.23;6.22;;;;;;;;;;5055551;28;20474;-68
2021/05/20 03:09:44;;;;;;;9.98;6.25;;;;;;;;;;5070896;28;20036;-69
2021/05/20 03:12:10;;;;;;;16.10;6.57;;;;;;;;;;5055009;28;20037;-68
2021/05/20 03:14:37;;;;;;;9.27;5.57;;;;;;;;;;5070907;28;20021;-69
2021/05/20 03:17:09;;;;;;;8.65;6.22;;;;;;;;;;5055482;28;20029;-68
2021/05/20 03:19:35;;;;;;;7.90;5.63;;;;;;;;;;5054900;28;20023;-69
2021/05/20 03:22:02;;;;;;;10.55;6.50;;;;;;;;;;5055447;28;20025;-68
2021/05/20 03:24:28;;;;;;;9.30;6.28;;;;;;;;;;5055664;28;20063;-69
2021/05/20 03:26:55;;;;;;;9.05;6.30;;;;;;;;;;5058044;28;20037;-69
2021/05/20 03:29:21;;;;;;;12.85;6.85;;;;;;;;;;5061169;28;20064;-69
2021/05/20 03:31:48;;;;;;;8.68;6.07;;;;;;;;;;5064931;28;20032;-68
2021/05/20 03:34:14;;;;;;;9.65;6.38;;;;;;;;;;5060744;28;20021;-68
2021/05/20 03:36:41;;;;;;;9.65;6.93;;;;;;;;;;5054197;28;20458;-68
2021/05/20 03:39:07;;;;;;;9.65;6.85;;;;;;;;;;5063037;28;20024;-69
2021/05/20 03:41:33;;;;;;;8.02;6.30;;;;;;;;;;5063696;28;20393;-68
2021/05/20 03:44:00;;;;;;;9.93;6.95;;;;;;;;;;5063916;28;20037;-68
2021/05/20 03:46:26;;;;;;;9.38;7.03;;;;;;;;;;5064892;28;20021;-68
2021/05/20 03:48:53;;;;;;;11.23;6.93;;;;;;;;;;5064242;28;20025;-68
2021/05/20 03:51:19;;;;;;;11.00;6.88;;;;;;;;;;5059699;28;20043;-68
2021/05/20 03:53:46;;;;;;;9.57;6.85;;;;;;;;;;5064522;28;20029;-68
2021/05/20 03:56:12;;;;;;;9.27;7.00;;;;;;;;;;5063955;28;20406;-69
2021/05/20 03:58:38;;;;;;;10.25;6.80;;;;;;;;;;5064249;28;20031;-69
2021/05/20 04:01:04;;;;;;;10.98;7.45;;;;;;;;;;5061724;28;20410;-69
2021/05/20 04:03:31;;;;;;;8.57;6.47;;;;;;;;;;5062505;28;20024;-69
2021/05/20 04:05:59;;;;;;;11.48;7.35;;;;;;;;;;5064990;28;20512;-69
2021/05/20 04:08:25;;;;;;;10.45;7.15;;;;;;;;;;5063917;28;20017;-68
2021/05/20 04:10:52;;;;;;;9.35;6.82;;;;;;;;;;5059669;28;20489;-68
2021/05/20 04:13:32;;;;;;;10.57;7.13;;;;;;;;;;5063358;28;20474;-68
2021/05/20 04:15:59;;;;;;;;;;;;;;;;;;5063696;28;20025;-68
2021/05/20 04:18:25;;;;;;;10.85;7.13;;;;;;;;;;5063872;28;19911;-69
2021/05/20 04:20:52;;;;;;;14.40;7.82;;;;;;;;;;5062851;28;20552;-68
2021/05/20 04:23:18;;;;;;;13.27;7.60;;;;;;;;;;5062476;28;20028;-68
2021/05/20 04:25:45;;;;;;;8.73;7.07;;;;;;;;;;5063752;28;20053;-68
2021/05/20 04:28:11;;;;;;;10.30;7.15;;;;;;;;;;5063363;28;20020;-68
2021/05/20 04:30:38;;;;;;;11.95;7.05;;;;;;;;;;5061279;28;20040;-68
2021/05/20 04:33:04;;;;;;;14.82;7.80;;;;;;;;;;5063502;28;20029;-68
2021/05/20 04:35:31;;;;;;;11.30;7.70;;;;;;;;;;5063903;28;20471;-68
2021/05/20 04:37:57;;;;;;;10.93;6.65;;;;;;;;;;5064386;28;20285;-68
2021/05/20 04:40:24;;;;;;;11.18;6.68;;;;;;;;;;5061539;28;20027;-68
2021/05/20 04:42:51;;;;;;;7.90;6.10;;;;;;;;;;5063946;28;20498;-68
2021/05/20 04:45:17;;;;;;;9.13;6.55;;;;;;;;;;5062735;28;20108;-68
2021/05/20 04:47:44;;;;;;;8.20;5.78;;;;;;;;;;5061557;28;20110;-68
2021/05/20 04:50:11;;;;;;;11.15;6.20;;;;;;;;;;5062894;28;20029;-68
2021/05/20 04:52:37;;;;;;;10.10;5.82;;;;;;;;;;5060580;28;20108;-69
2021/05/20 04:55:03;;;;;;;10.75;6.72;;;;;;;;;;5062918;28;20092;-68
2021/05/20 04:57:30;;;;;;;9.52;5.38;;;;;;;;;;5062587;28;20020;-68
2021/05/20 04:59:56;;;;;;;9.63;5.85;;;;;;;;;;5064358;28;20171;-68
2021/05/20 05:02:23;;;;;;;11.60;5.85;;;;;;;;;;5060586;28;20053;-68
2021/05/20 05:04:49;;;;;;;9.48;6.43;;;;;;;;;;5062847;28;20158;-69
2021/05/20 05:07:16;;;;;;;7.35;5.68;;;;;;;;;;5055954;28;20118;-68
2021/05/20 05:09:42;;;;;;;10.20;5.80;;;;;;;;;;5053065;28;20103;-68
2021/05/20 05:12:08;;;;;;;10.30;6.28;;;;;;;;;;5060911;28;20031;-68
2021/05/20 05:14:35;;;;;;;10.27;7.25;;;;;;;;;;5063748;28;20039;-67
2021/05/20 05:17:01;;;;;;;7.35;5.28;;;;;;;;;;5063314;28;20054;-68
2021/05/20 05:19:28;;;;;;;10.48;6.38;;;;;;;;;;5062628;28;20035;-68
2021/05/20 05:21:56;;;;;;;10.20;6.00;;;;;;;;;;5058752;28;20033;-68
2021/05/20 05:24:22;;;;;;;9.73;6.22;;;;;;;;;;5068391;28;20039;-67
2021/05/20 05:26:48;;;;;;;8.75;6.72;;;;;;;;;;5055418;28;20029;-69
2021/05/20 05:29:15;;;;;;;8.90;5.53;;;;;;;;;;5060220;28;20039;-68
2021/05/20 05:31:41;;;;;;;9.65;6.32;;;;;;;;;;5061430;28;20112;-69
2021/05/20 05:34:08;;;;;;;9.40;6.07;;;;;;;;;;5059927;28;20122;-69
2021/05/20 05:36:34;;;;;;;9.57;6.10;;;;;;;;;;5052691;28;20029;-71
2021/05/20 05:39:01;;;;;;;12.27;7.05;;;;;;;;;;5068940;28;20090;-71
2021/05/20 05:41:27;;;;;;;9.13;6.32;;;;;;;;;;5063112;28;20033;-70
2021/05/20 05:43:53;;;;;;;9.77;5.88;;;;;;;;;;5061376;28;20497;-70
2021/05/20 05:46:20;;;;;;;9.73;5.88;;;;;;;;;;5064608;28;20040;-71
2021/05/20 05:48:48;;;;;;;10.18;6.55;;;;;;;;;;5055064;28;20029;-71
2021/05/20 05:51:16;;;;;;;11.75;6.18;;;;;;;;;;5052101;28;20025;-71
2021/05/20 05:53:43;;;;;;;6.95;5.22;;;;;;;;;;5052518;28;20195;-76
2021/05/20 05:56:09;;;;;;;9.98;6.53;;;;;;;;;;5068152;28;20025;-77
2021/05/20 05:58:36;;;;;;;10.13;5.78;;;;;;;;;;5061106;28;20095;-78
2021/05/20 06:01:02;;;;;;;11.00;5.80;;;;;;;;;;5054225;28;20510;-74
2021/05/20 06:03:29;;;;;;;9.32;5.78;;;;;;;;;;5055978;28;20013;-72
2021/05/20 06:05:55;;;;;;;7.85;6.18;;;;;;;;;;5056526;28;20040;-72
2021/05/20 06:08:22;;;;;;;8.65;5.88;;;;;;;;;;5059765;28;20029;-72
2021/05/20 06:10:48;;;;;;;8.93;6.30;;;;;;;;;;5060382;28;20108;-71
2021/05/20 06:13:15;;;;;;;9.50;6.25;;;;;;;;;;5059511;28;20025;-74
2021/05/20 06:15:41;;;;;;;8.15;5.93;;;;;;;;;;5060657;28;20031;-72
2021/05/20 06:18:08;;;;;;;9.07;6.55;;;;;;;;;;5060714;28;20512;-76
2021/05/20 06:20:35;;;;;;;11.07;6.15;;;;;;;;;;5062230;28;20024;-74
2021/05/20 06:23:01;;;;;;;11.43;6.90;;;;;;;;;;5062718;28;20028;-77
2021/05/20 06:26:04;;;;;;;10.68;6.10;;;;;;;;;;5053463;28;20032;-72
2021/05/20 06:28:30;;;;;;;8.63;6.30;;;;;;;;;;5060345;28;20024;-73
2021/05/20 06:30:57;;;;;;;9.80;6.38;;;;;;;;;;5062627;28;20032;-74
2021/05/20 06:33:23;;;;;;;9.93;7.25;;;;;;;;;;5059063;28;20032;-75
2021/05/20 06:35:50;;;;;;;9.35;5.85;;;;;;;;;;5067069;28;20020;-73
2021/05/20 06:38:16;;;;;;;7.72;5.47;;;;;;;;;;5066281;28;20017;-73
2021/05/20 06:40:42;;;;;;;8.20;5.63;;;;;;;;;;5064680;28;20032;-74
2021/05/20 06:43:09;;;;;;;10.27;5.80;;;;;;;;;;5063687;28;20039;-74
2021/05/20 06:45:35;;;;;;;8.35;5.75;;;;;;;;;;5064234;28;20052;-75
2021/05/20 06:48:02;;;;;;;9.20;6.32;;;;;;;;;;5062801;28;20029;-74
2021/05/20 06:50:28;;;;;;;8.10;5.45;;;;;;;;;;5064960;28;20111;-75
2021/05/20 06:52:55;;;;;;;8.63;5.85;;;;;;;;;;5064184;28;20390;-73
2021/05/20 06:55:23;;;;;;;8.27;5.60;;;;;;;;;;5064389;28;20024;-74
2021/05/20 07:00:35;;;;;;;10.25;6.28;;;;;;;;;;5057817;28;20017;-75
2021/05/20 07:03:01;;;;;;;8.18;5.55;;;;;;;;;;5057431;28;20045;-70
2021/05/20 07:05:27;;;;;;;7.18;5.30;;;;;;;;;;5060213;28;20024;-77
2021/05/20 07:07:54;;;;;;;9.90;5.85;;;;;;;;;;5066020;28;20024;-73
2021/05/20 07:10:20;;;;;;;11.20;5.43;;;;;;;;;;5065329;28;20025;-71
2021/05/20 07:12:47;;;;;;;7.03;4.90;;;;;;;;;;5064622;28;20130;-71
2021/05/20 07:15:13;;;;;;;8.40;5.25;;;;;;;;;;5065513;28;20099;-69
2021/05/20 07:17:39;;;;;;;6.65;5.15;;;;;;;;;;5063808;28;20053;-70
2021/05/20 07:20:06;;;;;;;7.82;5.32;;;;;;;;;;5064691;28;20028;-69
2021/05/20 07:22:33;;;;;;;8.93;5.47;;;;;;;;;;5062395;28;20087;-71
2021/05/20 07:25:02;;;;;;;9.85;5.63;;;;;;;;;;5059185;28;20798;-70
2021/05/20 07:27:29;;;;;;;7.72;5.10;;;;;;;;;;5056800;28;20017;-70
2021/05/20 07:29:55;;;;;;;6.28;3.97;;;;;;;;;;5053501;28;20029;-70
2021/05/20 07:32:22;;;;;;;6.18;4.57;;;;;;;;;;5056699;28;20033;-70
2021/05/20 07:34:48;;;;;;;7.38;3.95;;;;;;;;;;5061192;28;20367;-71
2021/05/20 07:37:14;;;;;;;6.85;4.30;;;;;;;;;;5061539;28;20374;-71
2021/05/20 07:39:41;;;;;;;6.40;4.68;;;;;;;;;;5060699;28;20025;-71
2021/05/20 07:42:07;;;;;;;6.53;4.55;;;;;;;;;;5056433;28;20645;-72
2021/05/20 07:44:36;;;;;;;6.80;5.03;;;;;;;;;;5053956;28;20336;-71
2021/05/20 07:47:03;;;;;;;7.88;5.53;;;;;;;;;;5053225;28;20073;-76
2021/05/20 07:49:30;;;;;;;10.27;5.07;;;;;;;;;;5060567;28;20029;-74
2021/05/20 07:51:57;;;;;;;9.45;5.20;;;;;;;;;;5062330;28;20118;-74
2021/05/20 07:54:23;;;;;;;8.38;5.32;;;;;;;;;;5068052;28;20017;-73
2021/05/20 07:56:50;;;;;;;8.05;5.07;;;;;;;;;;5054058;28;20021;-76
2021/05/20 07:59:16;;;;;;;8.35;5.00;;;;;;;;;;5058848;28;20025;-74
2021/05/20 08:01:53;;;;;;;6.15;4.70;;;;;;;;;;5052539;28;20118;-70
2021/05/20 08:04:22;;;;;;;11.15;4.65;;;;;;;;;;5057758;28;20020;-71
2021/05/20 08:06:55;;;;;;;9.50;4.75;;;;;;;;;;5055096;28;20028;-71
2021/05/20 08:09:31;;;;;;;7.25;4.18;;;;;;;;;;5065378;28;20059;-71
2021/05/20 08:11:58;;;;;;;6.63;4.28;;;;;;;;;;5067534;28;20029;-70
2021/05/20 08:14:24;;;;;;;6.50;4.43;;;;;;;;;;5066858;28;20021;-70
2021/05/20 08:16:51;;;;;;;5.85;4.47;;;;;;;;;;5069037;28;20017;-76
2021/05/20 08:19:17;;;;;;;6.63;4.55;;;;;;;;;;5064399;28;20362;-78
2021/05/20 08:21:44;;;;;;;5.60;4.22;;;;;;;;;;5060402;28;20025;-73
2021/05/20 08:24:10;;;;;;;7.00;4.85;;;;;;;;;;5062024;28;20061;-72
2021/05/20 08:26:36;;;;;;;8.60;5.10;;;;;;;;;;5045217;28;20120;-75
2021/05/20 08:29:03;;;;;;;12.50;4.72;;;;;;;;;;5061066;28;20067;-77
2021/05/20 08:31:29;;;;;;;6.47;4.03;;;;;;;;;;5061192;28;20470;-72
2021/05/20 08:33:56;;;;;;;4.82;3.65;;;;;;;;;;5062181;28;20169;-70
2021/05/20 08:36:23;;;;;;;7.15;4.05;;;;;;;;;;5063367;28;20028;-71
2021/05/20 08:38:50;;;;;;;5.47;3.92;;;;;;;;;;5064433;28;20044;-72
2021/05/20 08:41:20;;;;;;;7.05;3.70;;;;;;;;;;5064596;28;20023;-71
2021/05/20 08:43:47;;;;;;;4.63;3.40;;;;;;;;;;5059104;28;20039;-71
2021/05/20 08:46:14;;;;;;;5.13;3.47;;;;;;;;;;5054864;28;20091;-71
2021/05/20 08:48:40;;;;;;;6.75;3.90;;;;;;;;;;5052156;28;20021;-74
2021/05/20 08:51:06;;;;;;;7.72;3.90;;;;;;;;;;5053058;28;20024;-72
2021/05/20 08:53:33;;;;;;;5.35;3.83;;;;;;;;;;5053820;28;20021;-71
2021/05/20 08:55:59;;;;;;;9.35;4.53;;;;;;;;;;5063722;28;20028;-71
2021/05/20 08:58:26;;;;;;;6.47;3.38;;;;;;;;;;5060994;28;20021;-72
2021/05/20 09:00:53;;;;;;;6.85;3.60;;;;;;;;;;5060759;28;20515;-72
2021/05/20 09:03:21;;;;;;;4.82;2.72;;;;;;;;;;5062799;28;20016;-73
2021/05/20 09:05:49;;;;;;;10.07;2.88;;;;;;;;;;5060518;28;20020;-71
2021/05/20 09:08:19;;;;;;;3.55;2.50;;;;;;;;;;5061137;28;20024;-71
2021/05/20 09:10:46;;;;;;;5.82;2.53;;;;;;;;;;5059170;28;20052;-73
2021/05/20 09:13:12;;;;;;;4.20;2.40;;;;;;;;;;5061408;28;20035;-72
2021/05/20 09:15:46;;;;;;;6.15;2.45;;;;;;;;;;5062176;28;20451;-70
2021/05/20 09:18:12;;;;;;;4.55;2.42;;;;;;;;;;5060586;28;20021;-70
2021/05/20 09:20:40;;;;;;;3.85;2.60;;;;;;;;;;5060097;28;20021;-68
2021/05/20 09:23:10;;;;;;;3.55;2.17;;;;;;;;;;5061673;28;20420;-69
2021/05/20 09:25:37;;;;;;;4.97;2.53;;;;;;;;;;5060868;28;20020;-69
2021/05/20 09:28:03;;;;;;;10.98;2.65;;;;;;;;;;5059882;28;20021;-68
2021/05/20 09:30:30;;;;;;;4.32;2.47;;;;;;;;;;5060827;28;20107;-69
2021/05/20 09:32:57;;;;;;;3.53;2.50;;;;;;;;;;5057618;28;20029;-69
2021/05/20 09:35:23;;;;;;;3.10;2.03;;;;;;;;;;5062104;28;20029;-67
2021/05/20 09:37:51;;;;;;;5.03;1.50;;;;;;;;;;5057474;28;20032;-70
2021/05/20 09:40:19;;;;;;;3.28;2.05;;;;;;;;;;5059836;28;20039;-70
2021/05/20 09:42:48;;;;;;;3.10;2.20;;;;;;;;;;5060332;28;20481;-70
2021/05/20 09:45:15;;;;;;;4.97;2.25;;;;;;;;;;5060507;28;20033;-70
2021/05/20 09:47:42;;;;;;;8.73;2.38;;;;;;;;;;5060649;28;20021;-73
2021/05/20 09:50:09;;;;;;;7.45;2.28;;;;;;;;;;5060402;28;20055;-71
2021/05/20 09:52:36;;;;;;;3.50;2.20;;;;;;;;;;5059843;28;20017;-70
2021/05/20 09:55:03;;;;;;;4.57;2.65;;;;;;;;;;5061032;28;20021;-70
2021/05/20 09:57:30;;;;;;;3.92;2.58;;;;;;;;;;5056141;28;20021;-70
2021/05/20 10:00:16;;;;;;;5.78;2.53;;;;;;;;;;5057029;28;20499;-70
2021/05/20 10:02:43;;;;;;;3.45;2.65;;;;;;;;;;5061210;28;20053;-69
2021/05/20 10:05:23;;;;;;;3.35;2.05;;;;;;;;;;5058375;28;20025;-71
2021/05/20 10:07:49;;;;;;;5.00;2.45;;;;;;;;;;5064755;28;20051;-71
2021/05/20 10:10:16;;;;;;;3.53;2.05;;;;;;;;;;5059091;28;20076;-75
2021/05/20 10:12:45;;;;;;;6.18;2.28;;;;;;;;;;5059616;28;20540;-76
2021/05/20 10:15:12;;;;;;;4.20;2.10;;;;;;;;;;5056781;28;20017;-72
2021/05/20 10:17:39;;;;;;;4.75;2.17;;;;;;;;;;5061644;28;20493;-71
2021/05/20 10:20:06;;;;;;;4.10;2.42;;;;;;;;;;5059719;28;20409;-70
2021/05/20 10:22:33;;;;;;;7.07;2.72;;;;;;;;;;5060375;28;20074;-73
2021/05/20 10:25:00;;;;;;;9.18;3.83;;;;;;;;;;5057386;28;20058;-72
2021/05/20 10:27:26;;;;;;;9.05;3.55;;;;;;;;;;5051302;28;20029;-77
2021/05/20 10:29:52;;;;;;;7.75;4.45;;;;;;;;;;5062816;28;20508;-72
2021/05/20 10:32:19;;;;;;;7.18;3.88;;;;;;;;;;5059759;28;20094;-72
2021/05/20 10:35:18;;;;;;;6.68;4.50;;;;;;;;;;5059040;28;20047;-73
2021/05/20 10:37:44;;;;;;;5.22;3.15;;;;;;;;;;5024820;28;20084;-71
2021/05/20 10:40:30;;;;;;;6.28;3.00;;;;;;;;;;5061177;28;20078;-72
2021/05/20 10:43:08;;;;;;;6.63;2.78;;;;;;;;;;5059896;28;20421;-72
2021/05/20 10:45:35;;;;;;;3.60;2.35;;;;;;;;;;5068570;28;20408;-71
2021/05/20 10:48:05;;;;;;;6.43;3.00;;;;;;;;;;5056954;28;20025;-72
2021/05/20 10:50:49;;;;;;;6.38;3.10;;;;;;;;;;5064776;28;20461;-73
2021/05/20 10:53:34;;;;;;;4.82;3.10;;;;;;;;;;5053748;28;20116;-72
2021/05/20 10:56:00;;;;;;;6.35;3.83;;;;;;;;;;5053153;28;20025;-74
2021/05/20 10:58:30;;;;;;;5.38;4.18;;;;;;;;;;5049398;28;20029;-74
2021/05/20 11:00:56;;;;;;;7.50;4.20;;;;;;;;;;5048555;28;20045;-75
2021/05/20 11:03:42;;;;;;;6.85;4.50;;;;;;;;;;5050034;28;20048;-72
2021/05/20 11:06:08;;;;;;;8.02;3.78;;;;;;;;;;5052990;28;20029;-74
2021/05/20 11:08:37;;;;;;;7.68;4.05;;;;;;;;;;5049645;28;20017;-74
2021/05/20 11:11:04;;;;;;;4.95;3.63;;;;;;;;;;5049333;28;20052;-76
2021/05/20 11:13:37;;;;;;;4.97;3.03;;;;;;;;;;5047947;28;20028;-74
2021/05/20 11:16:26;;;;;;;5.25;2.47;;;;;;;;;;5052989;28;20024;-76
2021/05/20 11:18:53;;;;;;;3.75;2.58;;;;;;;;;;5052752;28;20100;-73
2021/05/20 11:21:19;;;;;;;5.10;2.50;;;;;;;;;;5059598;28;20494;-72
2021/05/20 11:23:45;;;;;;;8.50;2.60;;;;;;;;;;5064180;28;20036;-73
2021/05/20 11:26:14;;;;;;;5.13;2.80;;;;;;;;;;5063164;28;20508;-75
2021/05/20 11:28:44;;;;;;;4.25;2.55;;;;;;;;;;5065192;28;20039;-76
2021/05/20 11:31:10;;;;;;;6.07;2.83;;;;;;;;;;5065410;28;20108;-75
2021/05/20 11:34:05;;;;;;;5.15;3.05;;;;;;;;;;5064725;28;20100;-72
2021/05/20 11:36:24;;;;;;;3.03;2.10;;;;;;;;;;5065023;28;20029;-70
2021/05/20 11:38:54;;;;;;;2.75;1.85;;;;;;;;;;5063708;28;20025;-71
2021/05/20 11:41:21;;;;;;;3.75;2.40;;;;;;;;;;5060175;28;20104;-70
2021/05/20 11:43:59;;;;;;;4.57;2.72;;;;;;;;;;5054836;28;20021;-70
2021/05/20 11:46:27;;;;;;;4.80;2.42;;;;;;;;;;5056818;28;20028;-69
2021/05/20 11:48:57;;;;;;;5.03;2.42;;;;;;;;;;5055878;28;20044;-71
2021/05/20 11:52:03;;;;;;;4.57;2.60;;;;;;;;;;5061191;28;20035;-70
2021/05/20 11:54:31;;;;;;;5.43;2.95;;;;;;;;;;5040819;28;20025;-72
2021/05/20 11:56:59;;;;;;;6.40;2.83;;;;;;;;;;5043092;28;20028;-71
2021/05/20 11:59:25;;;;;;;5.70;2.80;;;;;;;;;;5053319;28;20470;-69
2021/05/20 12:01:51;;;;;;;4.20;2.55;;;;;;;;;;5064427;28;20068;-72
2021/05/20 12:04:18;;;;;;;4.80;2.50;;;;;;;;;;5066111;28;20025;-75
2021/05/20 12:06:49;;;;;;;4.93;2.15;;;;;;;;;;5064878;28;20025;-73
2021/05/20 12:09:16;;;;;;;6.45;3.03;;;;;;;;;;5063060;28;20028;-76
2021/05/20 12:11:43;;;;;;;5.07;1.98;;;;;;;;;;5064916;28;20462;-76
2021/05/20 12:14:39;;;;;;;3.33;1.60;;;;;;;;;;5068032;28;20024;-67
2021/05/20 12:17:16;;;;;;;3.15;1.83;;;;;;;;;;5044725;28;20383;-71
2021/05/20 12:19:46;;;;;;;4.57;1.80;;;;;;;;;;5061657;28;20021;-70
2021/05/20 12:22:31;;;;;;;4.68;2.00;;;;;;;;;;5064012;28;20025;-71
2021/05/20 12:25:03;;;;;;;6.10;2.08;;;;;;;;;;5062612;28;20036;-70
2021/05/20 12:27:38;;;;;;;2.88;1.60;;;;;;;;;;5062399;28;20032;-71
2021/05/20 12:30:37;;;;;;;3.90;2.00;;;;;;;;;;5049894;28;20024;-71
2021/05/20 12:33:03;;;;;;;5.90;2.58;;;;;;;;;;5055179;28;20017;-74
2021/05/20 12:35:31;;;;;;;6.05;2.40;;;;;;;;;;5065678;28;20338;-75
2021/05/20 12:38:00;;;;;;;3.08;2.20;;;;;;;;;;5061460;28;20021;-72
2021/05/20 12:40:28;;;;;;;3.40;2.38;;;;;;;;;;5059826;28;20059;-73
2021/05/20 12:43:03;;;;;;;4.50;2.08;;;;;;;;;;5060480;28;20124;-75
2021/05/20 12:45:30;;;;;;;3.92;1.98;;;;;;;;;;5074889;28;20025;-72
2021/05/20 12:47:57;;;;;;;5.90;2.20;;;;;;;;;;5060757;28;20550;-70
2021/05/20 12:50:27;;;;;;;3.05;1.80;;;;;;;;;;5062194;28;20024;-71
2021/05/20 12:52:54;;;;;;;5.53;2.10;;;;;;;;;;5061039;28;20031;-71
2021/05/20 12:55:29;;;;;;;7.18;2.40;;;;;;;;;;5062952;28;20057;-71
2021/05/20 12:57:57;;;;;;;6.00;3.08;;;;;;;;;;5060287;28;20029;-72
2021/05/20 13:00:23;;;;;;;5.07;4.07;;;;;;;;;;5061861;28;20017;-73
2021/05/20 13:03:03;;;;;;;4.35;3.00;;;;;;;;;;5060805;28;20667;-71
2021/05/20 13:05:33;;;;;;;9.13;3.03;;;;;;;;;;5061077;28;20036;-69
2021/05/20 13:07:59;;;;;;;6.20;2.15;;;;;;;;;;5060827;28;20036;-71
2021/05/20 13:10:32;;;;;;;2.55;1.60;;;;;;;;;;5059571;28;20032;-69
2021/05/20 13:12:58;;;;;;;6.40;1.63;;;;;;;;;;5063037;28;20025;-73
2021/05/20 13:15:25;;;;;;;2.45;1.52;;;;;;;;;;5059683;28;20498;-74
2021/05/20 13:18:30;;;;;;;2.08;1.20;;;;;;;;;;5058996;28;20100;-75
2021/05/20 13:23:26;;;;;;;5.80;1.20;;;;;;;;;;5059158;28;20493;-72
2021/05/20 13:25:52;;;;;;;4.15;1.25;;;;;;;;;;5059385;28;20021;-73
2021/05/20 13:28:19;;;;;;;2.03;0.88;;;;;;;;;;5057007;28;20033;-73
2021/05/20 13:31:06;;;;;;;1.23;1.00;;;;;;;;;;5059615;28;20096;-72
2021/05/20 13:33:38;;;;;;;0.90;0.60;;;;;;;;;;5056557;28;20100;-71
2021/05/20 13:36:07;;;;;;;3.42;0.90;;;;;;;;;;5058018;28;20082;-71
2021/05/20 13:38:33;;;;;;;0.90;0.60;;;;;;;;;;5056435;28;20105;-71
2021/05/20 13:40:59;;;;;;;2.38;0.80;;;;;;;;;;5058323;28;20031;-70
2021/05/20 13:43:31;;;;;;;1.73;0.77;;;;;;;;;;5055816;28;20021;-71
2021/05/20 13:45:57;;;;;;;1.92;0.93;;;;;;;;;;5055902;28;20025;-72
2021/05/20 13:48:24;;;;;;;1.13;0.85;;;;;;;;;;5056954;28;20020;-72
2021/05/20 13:50:51;;;;;;;1.38;0.65;;;;;;;;;;5071916;28;20466;-71
2021/05/20 13:53:17;;;;;;;0.88;0.70;;;;;;;;;;5059651;28;20424;-71
2021/05/20 13:55:44;;;;;;;0.88;0.70;;;;;;;;;;5065354;28;20430;-72
2021/05/20 13:58:12;;;;;;;0.55;0.40;;;;;;;;;;5067898;28;20013;-71
2021/05/20 14:00:39;;;;;;;0.95;0.75;;;;;;;;;;5062239;28;20021;-73
2021/05/20 14:03:08;;;;;;;1.50;1.10;;;;;;;;;;5061702;28;20066;-72
2021/05/20 14:08:20;;;;;;;1.40;1.10;;;;;;;;;;5047127;28;20388;-71
2021/05/20 14:10:46;;;;;;;4.97;1.38;;;;;;;;;;5058671;28;20104;-72
2021/05/20 14:13:12;;;;;;;2.25;1.23;;;;;;;;;;5063880;28;20116;-72
2021/05/20 14:15:38;;;;;;;6.50;1.27;;;;;;;;;;5063533;28;20521;-71
2021/05/20 14:18:05;;;;;;;2.05;1.40;;;;;;;;;;5060483;28;20493;-71
2021/05/20 14:20:32;;;;;;;2.60;1.92;;;;;;;;;;5059939;28;20024;-72
2021/05/20 14:22:58;;;;;;;2.88;1.75;;;;;;;;;;5060233;28;20028;-72
2021/05/20 14:25:26;;;;;;;4.28;1.50;;;;;;;;;;5062320;28;20043;-72
2021/05/20 14:27:52;;;;;;;2.70;1.75;;;;;;;;;;5057592;28;20013;-71
2021/05/20 14:30:19;;;;;;;3.78;1.63;;;;;;;;;;5058196;28;20047;-71
2021/05/20 14:32:45;;;;;;;2.90;1.75;;;;;;;;;;5060833;28;20052;-70
2021/05/20 14:35:12;;;;;;;2.80;1.65;;;;;;;;;;5060558;28;20027;-71
2021/05/20 14:37:38;;;;;;;3.53;1.73;;;;;;;;;;5059165;28;20166;-72
2021/05/20 14:40:05;;;;;;;3.63;1.65;;;;;;;;;;5060611;28;20032;-71
2021/05/20 14:42:31;;;;;;;4.28;1.80;;;;;;;;;;5060556;28;20017;-72
2021/05/20 14:44:58;;;;;;;2.83;1.58;;;;;;;;;;5059891;28;20025;-72
2021/05/20 14:47:26;;;;;;;3.08;1.80;;;;;;;;;;5061527;28;20036;-71
2021/05/20 14:49:55;;;;;;;1.60;1.27;;;;;;;;;;5060435;28;20025;-71
2021/05/20 14:52:38;;;;;;;2.42;1.75;;;;;;;;;;5060288;28;20021;-71
2021/05/20 14:55:09;;;;;;;2.47;1.38;;;;;;;;;;5059718;28;20017;-72